Time;durP1;ratioP1;P1;durP2;ratioP2;P2;SDS_P1;SDS_P2;PMS_P1;PMS_P2;Temp;Humidity;BMP_temperature;BMP_pressure;BME280_temperature;BME280_humidity;BME280_pressure;Samples;Min_cycle;Max_cycle;Signal;HPM_P1;HPM_P2
2024/04/17 00:00:17;;;;;;;;;;;7.30;1.00;;;;;;5456068;26;19933;-79
2024/04/17 00:02:43;;;;;;;;;;;7.40;1.00;;;;;;5456106;26;19924;-79
2024/04/17 00:05:09;;;;;;;;;;;7.40;1.00;;;;;;5456493;26;19925;-75
2024/04/17 00:07:34;;;;;;;;;;;7.50;1.00;;;;;;5455935;26;19933;-75
2024/04/17 00:10:00;;;;;;;;;;;7.50;1.00;;;;;;5455746;26;19935;-75
2024/04/17 00:12:25;;;;;;;;;;;7.50;1.00;;;;;;5456169;26;19924;-75
2024/04/17 00:14:51;;;;;;;;;;;7.50;1.00;;;;;;5455682;26;19997;-75
2024/04/17 00:17:28;;;;;;;;;;;7.50;1.00;;;;;;5469785;26;19924;-75
2024/04/17 00:19:53;;;;;;;;;;;7.50;1.00;;;;;;5455671;26;19924;-75
2024/04/17 00:22:20;;;;;;;;;;;7.50;1.00;;;;;;5456110;26;19936;-75
2024/04/17 00:24:46;;;;;;;;;;;7.50;1.00;;;;;;5455834;26;19924;-76
2024/04/17 00:27:12;;;;;;;;;;;7.50;1.00;;;;;;5455748;26;19935;-75
2024/04/17 00:29:37;;;;;;;;;;;7.60;1.00;;;;;;5455749;26;19924;-75
2024/04/17 00:32:05;;;;;;;;;;;7.60;1.00;;;;;;5466261;26;19924;-75
2024/04/17 00:34:34;;;;;;;;;;;7.60;1.00;;;;;;5455855;26;19996;-75
2024/04/17 00:37:00;;;;;;;;;;;7.60;1.00;;;;;;5454924;26;19931;-75
2024/04/17 00:39:28;;;;;;;;;;;7.70;1.00;;;;;;5453684;26;19924;-76
2024/04/17 00:41:54;;;;;;;;;;;7.60;1.00;;;;;;5454828;26;20433;-76
2024/04/17 00:44:22;;;;;;;;;;;7.60;1.00;;;;;;5437406;26;19936;-76
2024/04/17 00:46:48;;;;;;;;;;;7.60;1.00;;;;;;5469017;26;19939;-76
2024/04/17 00:49:16;;;;;;;;;;;7.60;1.00;;;;;;5455214;26;19924;-75
2024/04/17 00:51:42;;;;;;;;;;;7.60;1.00;;;;;;5455772;26;19950;-76
2024/04/17 00:54:08;;;;;;;;;;;7.70;1.00;;;;;;5454998;26;19931;-75
2024/04/17 00:56:40;;;;;;;;;;;7.70;1.00;;;;;;5455553;26;20000;-75
2024/04/17 00:59:10;;;;;;;;;;;7.70;1.00;;;;;;5454959;26;19924;-76
2024/04/17 01:01:40;;;;;;;;;;;7.70;1.00;;;;;;5455294;26;19928;-76
2024/04/17 01:04:16;;;;;;;;;;;7.70;1.00;;;;;;5455194;26;19960;-75
2024/04/17 01:06:42;;;;;;;;;;;7.80;1.00;;;;;;5455446;26;19935;-76
2024/04/17 01:09:10;;;;;;;;;;;7.80;1.00;;;;;;5419333;26;19925;-76
2024/04/17 01:11:39;;;;;;;;;;;7.90;1.00;;;;;;5443947;26;19944;-76
2024/04/17 01:14:10;;;;;;;;;;;7.80;1.00;;;;;;5432536;26;19932;-76
2024/04/17 01:16:40;;;;;;;;;;;7.90;1.00;;;;;;5455061;26;19931;-77
2024/04/17 01:19:08;;;;;;;;;;;7.90;1.00;;;;;;5455357;26;19924;-76
2024/04/17 01:21:34;;;;;;;;;;;8.00;1.00;;;;;;5459606;26;19928;-79
2024/04/17 01:24:04;;;;;;;;;;;8.00;1.00;;;;;;5455153;26;19932;-79
2024/04/17 01:26:30;;;;;;;;;;;8.00;1.00;;;;;;5455180;26;20280;-76
2024/04/17 01:28:55;;;;;;;;;;;8.00;1.00;;;;;;5455024;26;19924;-76
2024/04/17 01:31:21;;;;;;;;;;;8.00;1.00;;;;;;5454747;26;20001;-76
2024/04/17 01:33:46;;;;;;;;;;;8.10;1.00;;;;;;5454853;26;19924;-76
2024/04/17 01:36:16;;;;;;;;;;;8.00;1.00;;;;;;5455019;26;19936;-79
2024/04/17 01:38:46;;;;;;;;;;;8.10;1.00;;;;;;5455300;26;19932;-79
2024/04/17 01:41:12;;;;;;;;;;;8.10;1.00;;;;;;5453506;26;19932;-79
2024/04/17 01:43:40;;;;;;;;;;;8.10;1.00;;;;;;5467827;26;19924;-79
2024/04/17 01:46:06;;;;;;;;;;;8.10;1.00;;;;;;5465073;26;19924;-79
2024/04/17 01:48:32;;;;;;;;;;;8.10;1.00;;;;;;5454357;26;20306;-79
2024/04/17 01:50:58;;;;;;;;;;;8.20;1.00;;;;;;5478277;26;19928;-79
2024/04/17 01:53:23;;;;;;;;;;;8.20;1.00;;;;;;5455319;26;19930;-76
2024/04/17 01:55:49;;;;;;;;;;;8.20;1.00;;;;;;5454360;26;19931;-76
2024/04/17 01:58:14;;;;;;;;;;;8.20;1.00;;;;;;5454352;26;19932;-76
2024/04/17 02:00:40;;;;;;;;;;;8.20;1.00;;;;;;5454244;26;19925;-75
2024/04/17 02:03:10;;;;;;;;;;;8.30;1.00;;;;;;5452810;26;19925;-75
2024/04/17 02:05:35;;;;;;;;;;;8.30;1.00;;;;;;5455044;26;19932;-75
2024/04/17 02:08:01;;;;;;;;;;;8.30;1.00;;;;;;5454751;26;19924;-79
2024/04/17 02:10:27;;;;;;;;;;;8.30;1.00;;;;;;5454098;26;19933;-79
2024/04/17 02:12:52;;;;;;;;;;;8.30;1.00;;;;;;5454610;26;19929;-80
2024/04/17 02:15:18;;;;;;;;;;;8.20;1.00;;;;;;5459066;26;19924;-79
2024/04/17 02:17:46;;;;;;;;;;;8.20;1.00;;;;;;5447863;26;19936;-79
2024/04/17 02:20:11;;;;;;;;;;;8.20;1.00;;;;;;5445151;26;19932;-79
2024/04/17 02:22:46;;;;;;;;;;;8.20;1.00;;;;;;5437372;26;19924;-76
2024/04/17 02:25:11;;;;;;;;;;;8.20;1.00;;;;;;5453981;26;19925;-75
2024/04/17 02:27:37;;;;;;;;;;;8.20;1.00;;;;;;5454179;26;19924;-76
2024/04/17 02:30:03;;;;;;;;;;;8.20;1.00;;;;;;5454270;26;19932;-76
2024/04/17 02:32:34;;;;;;;;;;;8.10;1.00;;;;;;5453657;26;19953;-76
2024/04/17 02:34:59;;;;;;;;;;;8.10;1.00;;;;;;5454081;26;19931;-76
2024/04/17 02:37:34;;;;;;;;;;;8.10;1.00;;;;;;5454201;26;19925;-79
2024/04/17 02:39:59;;;;;;;;;;;8.10;1.00;;;;;;5430411;26;19997;-79
2024/04/17 02:42:25;;;;;;;;;;;8.10;1.00;;;;;;5453890;26;19936;-79
2024/04/17 02:44:51;;;;;;;;;;;8.00;1.00;;;;;;5429608;26;19932;-79
2024/04/17 02:47:16;;;;;;;;;;;8.00;1.00;;;;;;5453470;26;19930;-79
2024/04/17 02:49:43;;;;;;;;;;;8.00;1.00;;;;;;5453683;26;19925;-79
2024/04/17 02:52:10;;;;;;;;;;;8.00;1.00;;;;;;5454015;26;20356;-76
2024/04/17 02:54:35;;;;;;;;;;;8.00;1.00;;;;;;5429735;26;19924;-76
2024/04/17 02:57:01;;;;;;;;;;;8.00;1.00;;;;;;5453780;26;19931;-76
2024/04/17 02:59:28;;;;;;;;;;;8.00;1.00;;;;;;5453237;26;19924;-75
2024/04/17 03:01:54;;;;;;;;;;;8.00;1.00;;;;;;5487074;26;19991;-75
2024/04/17 03:04:22;;;;;;;;;;;7.90;1.00;;;;;;5433341;26;19925;-76
2024/04/17 03:07:04;;;;;;;;;;;7.90;1.00;;;;;;5456941;26;19924;-78
2024/04/17 03:09:34;;;;;;;;;;;7.80;1.00;;;;;;5465238;26;19925;-76
2024/04/17 03:11:59;;;;;;;;;;;7.80;1.00;;;;;;5456702;26;19936;-75
2024/04/17 03:14:28;;;;;;;;;;;7.90;1.00;;;;;;5456965;26;19996;-76
2024/04/17 03:16:58;;;;;;;;;;;7.80;1.00;;;;;;5475702;26;19936;-76
2024/04/17 03:19:23;;;;;;;;;;;7.80;1.00;;;;;;5456887;26;19989;-75
2024/04/17 03:21:49;;;;;;;;;;;7.90;1.00;;;;;;5461757;26;19956;-76
2024/04/17 03:24:15;;;;;;;;;;;7.90;1.00;;;;;;5457137;26;19935;-79
2024/04/17 03:26:47;;;;;;;;;;;7.90;1.00;;;;;;5456349;26;19925;-79
2024/04/17 03:29:13;;;;;;;;;;;7.90;1.00;;;;;;5433563;26;20264;-79
2024/04/17 03:31:46;;;;;;;;;;;7.90;1.00;;;;;;5467303;26;19965;-79
2024/04/17 03:34:16;;;;;;;;;;;7.90;1.00;;;;;;5456972;26;19924;-79
2024/04/17 03:36:41;;;;;;;;;;;7.90;1.00;;;;;;5440569;26;19924;-79
2024/04/17 03:39:10;;;;;;;;;;;7.80;1.00;;;;;;5456859;26;19934;-79
2024/04/17 03:41:36;;;;;;;;;;;7.70;1.00;;;;;;5465414;26;19924;-79
2024/04/17 03:44:01;;;;;;;;;;;7.80;1.00;;;;;;5456484;26;19931;-79
2024/04/17 03:46:27;;;;;;;;;;;7.90;1.00;;;;;;5463058;26;19936;-79
2024/04/17 03:48:58;;;;;;;;;;;7.80;1.00;;;;;;5470028;26;19924;-79
2024/04/17 03:51:28;;;;;;;;;;;7.80;1.00;;;;;;5456011;26;19933;-79
2024/04/17 03:53:53;;;;;;;;;;;7.80;1.00;;;;;;5456639;26;19924;-76
2024/04/17 03:56:22;;;;;;;;;;;7.90;1.00;;;;;;5461945;26;19924;-76
2024/04/17 03:58:47;;;;;;;;;;;7.90;1.00;;;;;;5468023;26;19993;-76
2024/04/17 04:01:13;;;;;;;;;;;7.90;1.00;;;;;;5456166;26;19924;-76
2024/04/17 04:03:40;;;;;;;;;;;7.90;1.00;;;;;;5455972;26;19924;-76
2024/04/17 04:06:10;;;;;;;;;;;7.90;1.00;;;;;;5432297;26;19995;-78
2024/04/17 04:08:36;;;;;;;;;;;7.90;1.00;;;;;;5474633;26;20255;-79
2024/04/17 04:11:01;;;;;;;;;;;7.90;1.00;;;;;;5455727;26;19925;-78
2024/04/17 04:13:27;;;;;;;;;;;7.80;1.00;;;;;;5454791;26;19930;-80
2024/04/17 04:15:53;;;;;;;;;;;7.80;1.00;;;;;;5456602;26;19997;-80
2024/04/17 04:18:22;;;;;;;;;;;7.70;1.00;;;;;;5454001;26;19925;-78
2024/04/17 04:20:52;;;;;;;;;;;7.60;1.00;;;;;;5455827;26;19931;-78
2024/04/17 04:23:18;;;;;;;;;;;7.70;1.00;;;;;;5455959;26;19924;-76
2024/04/17 04:25:43;;;;;;;;;;;7.60;1.00;;;;;;5455630;26;19948;-75
2024/04/17 04:28:16;;;;;;;;;;;7.60;1.00;;;;;;5455684;26;19936;-75
2024/04/17 04:30:41;;;;;;;;;;;7.50;1.00;;;;;;5455650;26;19924;-76
2024/04/17 04:33:11;;;;;;;;;;;7.40;1.00;;;;;;5461210;26;19932;-75
2024/04/17 04:35:37;;;;;;;;;;;7.40;1.00;;;;;;5466950;26;20379;-75
2024/04/17 04:38:03;;;;;;;;;;;7.30;1.00;;;;;;5455400;26;19933;-75
2024/04/17 04:40:29;;;;;;;;;;;7.30;1.00;;;;;;5437825;26;19925;-76
2024/04/17 04:42:58;;;;;;;;;;;7.30;1.00;;;;;;5452416;26;19948;-75
2024/04/17 04:45:24;;;;;;;;;;;7.20;1.00;;;;;;5455396;26;19928;-75
2024/04/17 04:47:50;;;;;;;;;;;7.20;1.00;;;;;;5455350;26;19935;-75
2024/04/17 04:50:16;;;;;;;;;;;7.20;1.00;;;;;;5428448;26;20685;-75
2024/04/17 04:52:42;;;;;;;;;;;7.10;1.00;;;;;;5455123;26;19924;-75
2024/04/17 04:55:10;;;;;;;;;;;7.00;1.00;;;;;;5454064;26;19924;-79
2024/04/17 04:57:46;;;;;;;;;;;7.00;1.00;;;;;;5455101;26;19935;-78
2024/04/17 05:00:12;;;;;;;;;;;7.00;1.00;;;;;;5453303;26;19931;-78
2024/04/17 05:02:38;;;;;;;;;;;7.00;1.00;;;;;;5455071;26;19924;-78
2024/04/17 05:05:04;;;;;;;;;;;7.00;1.00;;;;;;5453925;26;20359;-78
2024/04/17 05:07:30;;;;;;;;;;;6.90;1.00;;;;;;5454998;26;19924;-78
2024/04/17 05:09:55;;;;;;;;;;;7.00;1.00;;;;;;5454956;26;19924;-78
2024/04/17 05:12:22;;;;;;;;;;;;;;;;;;5454211;26;19931;-78
2024/04/17 05:14:47;;;;;;;;;;;6.90;1.00;;;;;;5430831;26;19936;-78
2024/04/17 05:17:13;;;;;;;;;;;6.90;1.00;;;;;;5455766;26;19924;-78
2024/04/17 05:19:38;;;;;;;;;;;7.00;1.00;;;;;;5455525;26;19974;-78
2024/04/17 05:22:10;;;;;;;;;;;7.00;1.00;;;;;;5455983;26;19924;-78
2024/04/17 05:24:36;;;;;;;;;;;7.00;1.00;;;;;;5455158;26;19932;-77
2024/04/17 05:27:04;;;;;;;;;;;7.10;1.00;;;;;;5456064;26;19925;-78
2024/04/17 05:29:34;;;;;;;;;;;7.20;1.00;;;;;;5455719;26;19956;-78
2024/04/17 05:32:00;;;;;;;;;;;7.20;1.00;;;;;;5455634;26;19932;-78
2024/04/17 05:34:25;;;;;;;;;;;7.20;1.00;;;;;;5455492;26;19924;-78
2024/04/17 05:36:52;;;;;;;;;;;7.30;1.00;;;;;;5455490;26;20225;-78
2024/04/17 05:39:32;;;;;;;;;;;7.30;1.00;;;;;;5455342;26;19931;-78
2024/04/17 05:41:58;;;;;;;;;;;7.30;1.00;;;;;;5438031;26;20610;-78
2024/04/17 05:44:36;;;;;;;;;;;7.30;1.00;;;;;;5440880;26;19936;-78
2024/04/17 05:47:01;;;;;;;;;;;7.40;1.00;;;;;;5451633;26;19931;-78
2024/04/17 05:49:28;;;;;;;;;;;7.40;1.00;;;;;;5447920;26;19936;-78
2024/04/17 05:51:53;;;;;;;;;;;7.60;1.00;;;;;;5460522;26;20225;-78
2024/04/17 05:54:19;;;;;;;;;;;7.70;1.00;;;;;;5460445;26;19924;-78
2024/04/17 05:56:45;;;;;;;;;;;7.70;1.00;;;;;;5455418;26;19924;-78
2024/04/17 05:59:16;;;;;;;;;;;7.70;1.00;;;;;;5457871;26;20217;-78
2024/04/17 06:01:52;;;;;;;;;;;7.80;1.00;;;;;;5482675;26;19923;-78
2024/04/17 06:04:22;;;;;;;;;;;7.90;1.00;;;;;;5448223;26;19948;-78
2024/04/17 06:06:48;;;;;;;;;;;7.90;1.00;;;;;;5462802;26;20331;-78
2024/04/17 06:09:13;;;;;;;;;;;7.80;1.00;;;;;;5468781;26;20213;-78
2024/04/17 06:11:40;;;;;;;;;;;7.80;1.00;;;;;;5461010;26;19932;-79
2024/04/17 06:14:05;;;;;;;;;;;7.80;1.00;;;;;;5475362;26;19925;-79
2024/04/17 06:16:34;;;;;;;;;;;7.80;1.00;;;;;;5458538;26;19961;-79
2024/04/17 06:18:59;;;;;;;;;;;7.80;1.00;;;;;;5459893;26;19931;-79
2024/04/17 06:21:28;;;;;;;;;;;7.80;1.00;;;;;;5452111;26;19924;-79
2024/04/17 06:23:54;;;;;;;;;;;7.90;1.00;;;;;;5467747;26;19932;-79
2024/04/17 06:26:19;;;;;;;;;;;8.00;1.00;;;;;;5457279;26;19925;-76
2024/04/17 06:28:45;;;;;;;;;;;8.00;1.00;;;;;;5463347;26;20633;-75
2024/04/17 06:31:11;;;;;;;;;;;8.00;1.00;;;;;;5457109;26;19924;-75
2024/04/17 06:33:36;;;;;;;;;;;8.00;1.00;;;;;;5456011;26;19924;-76
2024/04/17 06:36:02;;;;;;;;;;;8.00;1.00;;;;;;5452684;26;19935;-76
2024/04/17 06:38:28;;;;;;;;;;;8.10;1.00;;;;;;5457623;26;19924;-76
2024/04/17 06:40:58;;;;;;;;;;;8.40;1.00;;;;;;5467974;26;19925;-76
2024/04/17 06:43:24;;;;;;;;;;;8.40;1.00;;;;;;5441551;26;19925;-76
2024/04/17 06:45:58;;;;;;;;;;;8.50;1.00;;;;;;5457911;26;19924;-75
2024/04/17 06:48:24;;;;;;;;;;;8.80;1.00;;;;;;5476514;26;19936;-75
2024/04/17 06:50:49;;;;;;;;;;;8.90;1.00;;;;;;5458972;26;19932;-76
2024/04/17 06:53:15;;;;;;;;;;;9.20;1.00;;;;;;5458040;26;19957;-76
2024/04/17 06:55:44;;;;;;;;;;;9.20;1.00;;;;;;5474042;26;19924;-78
2024/04/17 06:58:09;;;;;;;;;;;9.40;1.00;;;;;;5454309;26;19932;-79
2024/04/17 07:00:40;;;;;;;;;;;9.60;1.00;;;;;;5458616;26;19990;-79
2024/04/17 07:03:10;;;;;;;;;;;9.60;1.00;;;;;;5466640;26;19924;-79
2024/04/17 07:05:40;;;;;;;;;;;9.80;1.00;;;;;;5449923;26;19932;-79
2024/04/17 07:08:10;;;;;;;;;;;9.80;1.00;;;;;;5453450;26;19966;-79
2024/04/17 07:10:46;;;;;;;;;;;9.90;1.00;;;;;;5480304;26;19931;-79
2024/04/17 07:13:12;;;;;;;;;;;9.90;1.00;;;;;;5468397;26;20359;-79
2024/04/17 07:15:37;;;;;;;;;;;9.90;1.00;;;;;;5459207;26;19931;-79
2024/04/17 07:18:04;;;;;;;;;;;10.00;1.00;;;;;;5456772;26;19933;-79
2024/04/17 07:20:29;;;;;;;;;;;10.20;1.00;;;;;;5456100;26;19924;-80
2024/04/17 07:22:58;;;;;;;;;;;10.30;1.00;;;;;;5458435;26;19993;-79
2024/04/17 07:25:24;;;;;;;;;;;10.30;1.00;;;;;;5455268;26;19931;-79
2024/04/17 07:27:52;;;;;;;;;;;10.50;1.00;;;;;;5454698;26;19925;-76
2024/04/17 07:30:22;;;;;;;;;;;10.50;1.00;;;;;;5464310;26;19930;-76
2024/04/17 07:32:48;;;;;;;;;;;10.60;1.00;;;;;;5443857;26;19930;-76
2024/04/17 07:35:14;;;;;;;;;;;10.50;1.00;;;;;;5452636;26;19972;-75
2024/04/17 07:37:40;;;;;;;;;;;10.50;1.00;;;;;;5457215;26;19924;-76
2024/04/17 07:40:06;;;;;;;;;;;10.40;1.00;;;;;;5452203;26;19992;-75
2024/04/17 07:42:32;;;;;;;;;;;10.50;1.00;;;;;;5450598;26;19953;-76
2024/04/17 07:44:57;;;;;;;;;;;10.60;1.00;;;;;;5451396;26;19925;-75
2024/04/17 07:47:23;;;;;;;;;;;10.70;1.00;;;;;;5452533;26;19924;-76
2024/04/17 07:49:52;;;;;;;;;;;10.80;1.00;;;;;;5455959;26;19931;-75
2024/04/17 07:52:18;;;;;;;;;;;11.00;1.00;;;;;;5455935;26;19933;-76
2024/04/17 07:54:46;;;;;;;;;;;11.00;1.00;;;;;;5455781;26;19931;-75
2024/04/17 07:57:11;;;;;;;;;;;11.00;1.00;;;;;;5456898;26;19956;-76
2024/04/17 07:59:41;;;;;;;;;;;11.00;1.00;;;;;;5453505;26;19934;-75
2024/04/17 08:02:10;;;;;;;;;;;11.00;1.00;;;;;;5456117;26;19935;-76
2024/04/17 08:04:38;;;;;;;;;;;11.00;1.00;;;;;;5455920;26;19932;-79
2024/04/17 08:07:07;;;;;;;;;;;11.00;1.00;;;;;;5455698;26;20325;-75
2024/04/17 08:09:39;;;;;;;;;;;11.00;1.00;;;;;;5455911;26;19947;-77
2024/04/17 08:12:06;;;;;;;;;;;11.20;1.00;;;;;;5456078;26;19993;-76
2024/04/17 08:14:36;;;;;;;;;;;11.20;1.00;;;;;;5432241;26;19924;-76
2024/04/17 08:17:03;;;;;;;;;;;11.50;1.00;;;;;;5485398;26;20374;-77
2024/04/17 08:19:34;;;;;;;;;;;11.50;1.00;;;;;;5473030;26;20044;-75
2024/04/17 08:22:04;;;;;;;;;;;11.70;1.00;;;;;;5463165;26;19932;-76
2024/04/17 08:24:36;;;;;;;;;;;12.00;1.00;;;;;;5453726;26;20436;-75
2024/04/17 08:27:05;;;;;;;;;;;11.80;1.00;;;;;;5438508;26;19952;-78
2024/04/17 08:29:35;;;;;;;;;;;11.80;1.00;;;;;;5439646;26;20045;-77
2024/04/17 08:32:07;;;;;;;;;;;11.60;1.00;;;;;;5481176;26;19932;-78
2024/04/17 08:34:38;;;;;;;;;;;11.80;1.00;;;;;;5490989;26;19935;-77
2024/04/17 08:37:06;;;;;;;;;;;11.90;1.00;;;;;;5456259;26;19931;-77
2024/04/17 08:39:34;;;;;;;;;;;12.00;1.00;;;;;;5435127;26;19960;-78
2024/04/17 08:42:05;;;;;;;;;;;12.00;1.00;;;;;;5454547;26;19924;-78
2024/04/17 08:44:40;;;;;;;;;;;11.90;1.00;;;;;;5456557;26;20241;-79
2024/04/17 08:47:06;;;;;;;;;;;12.00;1.00;;;;;;5456156;26;19955;-79
2024/04/17 08:49:33;;;;;;;;;;;12.00;1.00;;;;;;5456067;26;19937;-78
2024/04/17 08:52:11;;;;;;;;;;;11.90;1.00;;;;;;5456203;26;20271;-78
2024/04/17 08:54:43;;;;;;;;;;;12.10;1.00;;;;;;5456011;26;19924;-80
2024/04/17 08:57:10;;;;;;;;;;;12.10;1.00;;;;;;5456633;26;19932;-79
2024/04/17 08:59:37;;;;;;;;;;;12.20;1.00;;;;;;5430399;26;19931;-79
2024/04/17 09:02:13;;;;;;;;;;;12.10;1.00;;;;;;5468081;26;19925;-79
2024/04/17 09:04:43;;;;;;;;;;;12.10;1.00;;;;;;5453848;26;19966;-79
2024/04/17 09:07:13;;;;;;;;;;;12.00;1.00;;;;;;5452384;26;20384;-78
2024/04/17 09:09:40;;;;;;;;;;;12.20;1.00;;;;;;5455379;26;19924;-79
2024/04/17 09:12:09;;;;;;;;;;;12.50;1.00;;;;;;5455337;26;20256;-77
2024/04/17 09:14:35;;;;;;;;;;;12.30;1.00;;;;;;5425775;26;20372;-76
2024/04/17 09:17:01;;;;;;;;;;;12.30;1.00;;;;;;5441155;26;19924;-76
2024/04/17 09:19:27;;;;;;;;;;;12.40;1.00;;;;;;5454774;26;19953;-76
2024/04/17 09:21:52;;;;;;;;;;;12.40;1.00;;;;;;5470695;26;20379;-76
2024/04/17 09:24:18;;;;;;;;;;;12.30;1.00;;;;;;5453359;26;19924;-75
2024/04/17 09:26:44;;;;;;;;;;;12.30;1.00;;;;;;5465754;26;19931;-76
2024/04/17 09:29:18;;;;;;;;;;;12.60;1.00;;;;;;5468372;26;19924;-76
2024/04/17 09:31:43;;;;;;;;;;;12.60;1.00;;;;;;5464894;26;20367;-76
2024/04/17 09:34:16;;;;;;;;;;;12.70;1.00;;;;;;5476700;26;19961;-75
2024/04/17 09:36:45;;;;;;;;;;;12.80;1.00;;;;;;5460122;26;19932;-76
2024/04/17 09:39:10;;;;;;;;;;;13.10;1.00;;;;;;5459418;26;20390;-76
2024/04/17 09:41:39;;;;;;;;;;;13.20;1.00;;;;;;5457281;26;19924;-76
2024/04/17 09:44:07;;;;;;;;;;;13.30;1.00;;;;;;5458139;26;19935;-79
2024/04/17 09:46:34;;;;;;;;;;;13.50;1.00;;;;;;5452478;26;19924;-79
2024/04/17 09:49:03;;;;;;;;;;;13.60;1.00;;;;;;5460766;26;19932;-79
2024/04/17 09:51:36;;;;;;;;;;;13.70;1.00;;;;;;5461214;26;19925;-79
2024/04/17 09:54:07;;;;;;;;;;;14.10;1.00;;;;;;5453477;26;19932;-78
2024/04/17 09:56:34;;;;;;;;;;;14.40;1.00;;;;;;5472316;26;19924;-78
2024/04/17 09:59:03;;;;;;;;;;;14.30;1.00;;;;;;5475547;26;19924;-76
2024/04/17 10:01:30;;;;;;;;;;;14.30;1.00;;;;;;5451007;26;19924;-75
2024/04/17 10:04:07;;;;;;;;;;;14.60;1.00;;;;;;5460562;26;19956;-75
2024/04/17 10:06:37;;;;;;;;;;;14.60;1.00;;;;;;5454263;26;19939;-75
2024/04/17 10:09:03;;;;;;;;;;;14.50;1.00;;;;;;5439320;26;20351;-76
2024/04/17 10:11:35;;;;;;;;;;;14.40;1.00;;;;;;5465574;26;19968;-75
2024/04/17 10:14:08;;;;;;;;;;;14.30;1.00;;;;;;5444824;26;19953;-78
2024/04/17 10:16:34;;;;;;;;;;;14.50;1.00;;;;;;5457803;26;20372;-78
2024/04/17 10:18:59;;;;;;;;;;;14.50;1.00;;;;;;5467357;26;19992;-78
2024/04/17 10:21:33;;;;;;;;;;;14.70;1.00;;;;;;5459958;26;19924;-78
2024/04/17 10:24:08;;;;;;;;;;;14.80;1.00;;;;;;5466131;26;19960;-78
2024/04/17 10:26:47;;;;;;;;;;;14.60;1.00;;;;;;5449299;26;19953;-78
2024/04/17 10:29:22;;;;;;;;;;;14.30;1.00;;;;;;5466820;26;19970;-78
2024/04/17 10:32:03;;;;;;;;;;;14.20;1.00;;;;;;5450829;26;19932;-78
2024/04/17 10:34:28;;;;;;;;;;;13.70;1.00;;;;;;5456138;26;19973;-78
2024/04/17 10:37:04;;;;;;;;;;;13.60;1.00;;;;;;5464133;26;19924;-78
2024/04/17 10:39:32;;;;;;;;;;;13.80;1.00;;;;;;5459099;26;19932;-79
2024/04/17 10:42:04;;;;;;;;;;;13.80;1.00;;;;;;5469782;26;19938;-79
2024/04/17 10:44:34;;;;;;;;;;;13.90;1.00;;;;;;5474127;26;20535;-75
2024/04/17 10:47:04;;;;;;;;;;;13.80;1.00;;;;;;5454690;26;19924;-75
2024/04/17 10:49:38;;;;;;;;;;;14.10;1.00;;;;;;5453400;26;19924;-76
2024/04/17 10:52:04;;;;;;;;;;;14.40;1.00;;;;;;5453500;26;19925;-75
2024/04/17 10:54:31;;;;;;;;;;;14.20;1.00;;;;;;5454787;26;20385;-75
2024/04/17 10:56:59;;;;;;;;;;;14.10;1.00;;;;;;5460786;26;19925;-75
2024/04/17 10:59:30;;;;;;;;;;;13.90;1.00;;;;;;5456682;26;19939;-77
2024/04/17 11:01:55;;;;;;;;;;;13.90;1.00;;;;;;5452828;26;20709;-78
2024/04/17 11:04:23;;;;;;;;;;;13.60;1.00;;;;;;5454970;26;19924;-78
2024/04/17 11:06:49;;;;;;;;;;;13.60;1.00;;;;;;5462151;26;20357;-77
2024/04/17 11:09:16;;;;;;;;;;;13.10;1.00;;;;;;5483614;26;19931;-77
2024/04/17 11:11:49;;;;;;;;;;;13.10;1.00;;;;;;5461916;26;19931;-77
2024/04/17 11:14:15;;;;;;;;;;;13.30;1.00;;;;;;5459124;26;19928;-78
2024/04/17 11:16:46;;;;;;;;;;;13.70;1.00;;;;;;5452433;26;20259;-79
2024/04/17 11:19:22;;;;;;;;;;;14.30;1.00;;;;;;5462105;26;19930;-78
2024/04/17 11:21:52;;;;;;;;;;;14.50;1.00;;;;;;5454106;26;20272;-78
2024/04/17 11:24:19;;;;;;;;;;;14.60;1.00;;;;;;5468911;26;19924;-81
2024/04/17 11:26:44;;;;;;;;;;;14.40;1.00;;;;;;5460333;26;20040;-75
2024/04/17 11:29:19;;;;;;;;;;;14.50;1.00;;;;;;5453067;26;20356;-77
2024/04/17 11:31:46;;;;;;;;;;;14.60;1.00;;;;;;5453378;26;19936;-75
2024/04/17 11:34:19;;;;;;;;;;;14.90;1.00;;;;;;5491338;26;19932;-76
2024/04/17 11:36:44;;;;;;;;;;;15.60;1.00;;;;;;5452076;26;19935;-80
2024/04/17 11:39:10;;;;;;;;;;;16.20;1.00;;;;;;5468316;26;19925;-77
2024/04/17 11:41:35;;;;;;;;;;;16.50;1.00;;;;;;5462358;26;19993;-74
2024/04/17 11:44:04;;;;;;;;;;;16.50;1.00;;;;;;5467643;26;19932;-78
2024/04/17 11:46:38;;;;;;;;;;;16.20;1.00;;;;;;5457659;26;19924;-82
2024/04/17 11:49:04;;;;;;;;;;;15.90;1.00;;;;;;5457570;26;20348;-77
2024/04/17 11:51:30;;;;;;;;;;;15.70;1.00;;;;;;5453862;26;19924;-75
2024/04/17 11:53:59;;;;;;;;;;;15.80;1.00;;;;;;5443906;26;19928;-76
2024/04/17 11:56:25;;;;;;;;;;;15.80;1.00;;;;;;5458407;26;19931;-76
2024/04/17 11:58:53;;;;;;;;;;;15.70;1.00;;;;;;5461370;26;19946;-79
2024/04/17 12:01:24;;;;;;;;;;;15.30;1.00;;;;;;5456045;26;19931;-74
2024/04/17 12:03:52;;;;;;;;;;;15.10;1.00;;;;;;5471826;26;19931;-82
2024/04/17 12:06:22;;;;;;;;;;;14.90;1.00;;;;;;5455863;26;19924;-75
2024/04/17 12:08:48;;;;;;;;;;;15.00;1.00;;;;;;5455699;26;19926;-74
2024/04/17 12:11:28;;;;;;;;;;;15.50;1.00;;;;;;5465485;26;19923;-78
2024/04/17 12:14:04;;;;;;;;;;;15.30;1.00;;;;;;5467290;26;19932;-86
2024/04/17 12:16:30;;;;;;;;;;;15.00;1.00;;;;;;5479720;26;19992;-73
2024/04/17 12:18:56;;;;;;;;;;;15.20;1.00;;;;;;5453935;26;19936;-74
2024/04/17 12:21:21;;;;;;;;;;;15.10;1.00;;;;;;5442050;26;19931;-73
2024/04/17 12:23:51;;;;;;;;;;;14.90;1.00;;;;;;5466013;26;19924;-73
2024/04/17 12:29:33;;;;;;;;;;;14.90;1.00;;;;;;5455963;26;19938;-78
2024/04/17 12:31:59;;;;;;;;;;;14.50;1.00;;;;;;5462284;26;19924;-79
2024/04/17 12:34:25;;;;;;;;;;;14.30;1.00;;;;;;5456002;26;19964;-80
2024/04/17 12:36:59;;;;;;;;;;;14.10;1.00;;;;;;5470286;26;19924;-80
2024/04/17 12:39:25;;;;;;;;;;;14.10;1.00;;;;;;5465693;26;20051;-81
2024/04/17 12:41:52;;;;;;;;;;;14.00;1.00;;;;;;5473170;26;19956;-80
2024/04/17 12:44:23;;;;;;;;;;;14.00;1.00;;;;;;5459841;26;19925;-80
2024/04/17 12:46:53;;;;;;;;;;;13.90;1.00;;;;;;5467529;26;19924;-73
2024/04/17 12:49:18;;;;;;;;;;;14.00;1.00;;;;;;5459438;26;19957;-72
2024/04/17 12:51:44;;;;;;;45.17;21.83;;;13.90;1.00;;;;;;5463336;26;20350;-72
2024/04/17 12:54:09;;;;;;;;;;;14.00;1.00;;;;;;5463809;26;20289;-73
2024/04/17 12:56:36;;;;;;;;;;;14.00;1.00;;;;;;5457949;26;20341;-73
2024/04/17 12:59:05;;;;;;;;;;;13.90;1.00;;;;;;5463583;26;19924;-73
2024/04/17 13:01:34;;;;;;;;;;;16.10;1.00;;;;;;5472176;26;20372;-80
2024/04/17 13:04:07;;;;;;;;;;;14.20;1.00;;;;;;5477665;26;19924;-81
2024/04/17 13:06:33;;;;;;;;;;;15.00;1.00;;;;;;5475069;26;19961;-81
2024/04/17 13:09:05;;;;;;;;;;;15.10;1.00;;;;;;5453693;26;19924;-78
2024/04/17 13:11:38;;;;;;;;;;;15.60;1.00;;;;;;5446314;26;19926;-78
2024/04/17 13:14:05;;;;;;;;;;;15.60;1.00;;;;;;5459819;26;19952;-76
2024/04/17 13:16:31;;;;;;;;;;;15.60;1.00;;;;;;5454857;26;19924;-80
2024/04/17 13:18:59;;;;;;;;;;;14.90;1.00;;;;;;5465055;26;19924;-74
2024/04/17 13:21:24;;;;;;;;;;;14.40;1.00;;;;;;5448802;26;20049;-76
2024/04/17 13:23:50;;;;;;;;;;;14.30;1.00;;;;;;5476751;26;19961;-75
2024/04/17 13:26:15;;;;;;;;;;;14.20;1.00;;;;;;5466086;26;19923;-76
2024/04/17 13:28:47;;;;;;;;;;;13.90;1.00;;;;;;5465439;26;19924;-77
2024/04/17 13:31:29;;;;;;;;;;;14.00;1.00;;;;;;5454902;26;19924;-77
2024/04/17 13:33:56;;;;;;;;;;;14.10;1.00;;;;;;5444898;26;20333;-76
2024/04/17 13:36:21;;;;;;;;;;;14.30;1.00;;;;;;5457756;26;20268;-82
2024/04/17 13:38:47;;;;;;;;;;;14.30;1.00;;;;;;5454364;26;19931;-78
2024/04/17 13:41:23;;;;;;;;;;;14.30;1.00;;;;;;5454131;26;19925;-77
2024/04/17 13:43:48;;;;;;;0.70;0.70;;;13.70;1.00;;;;;;5478081;26;20044;-79
2024/04/17 13:46:16;;;;;;;1.00;0.90;;;13.60;1.00;;;;;;5472996;26;20228;-77
2024/04/17 13:48:43;;;;;;;1.00;1.00;;;13.70;1.00;;;;;;5461046;26;20295;-78
2024/04/17 13:51:12;;;;;;;0.93;0.93;;;13.80;1.00;;;;;;5476587;26;21027;-76
2024/04/17 13:53:42;;;;;;;0.90;0.70;;;13.80;1.00;;;;;;5479303;26;20505;-78
2024/04/17 13:56:15;;;;;;;176.23;75.70;;;13.90;1.00;;;;;;5475808;26;20433;-82
2024/04/17 13:58:53;;;;;;;;;;;13.90;1.00;;;;;;5455057;26;20461;-84
2024/04/17 14:01:29;;;;;;;;;;;14.10;1.00;;;;;;5467010;26;19955;-81
2024/04/17 14:03:54;;;;;;;;;;;14.20;1.00;;;;;;5460205;26;19924;-81
2024/04/17 14:06:29;;;;;;;;;;;14.40;1.00;;;;;;5462357;26;19930;-81
2024/04/17 14:08:59;;;;;;;;;;;14.40;1.00;;;;;;5459608;26;19931;-82
2024/04/17 14:11:35;;;;;;;;;;;14.20;1.00;;;;;;5453654;26;19932;-79
2024/04/17 14:14:05;;;;;;;;;;;14.10;1.00;;;;;;5454100;26;19932;-75
2024/04/17 14:16:35;;;;;;;;;;;13.60;1.00;;;;;;5454198;26;19924;-76
2024/04/17 14:19:00;;;;;;;;;;;13.40;1.00;;;;;;5430147;26;19931;-77
2024/04/17 14:21:26;;;;;;;;;;;13.60;1.00;;;;;;5454090;26;19924;-74
2024/04/17 14:24:11;;;;;;;;;;;13.80;1.00;;;;;;5454164;26;19936;-76
2024/04/17 14:26:41;;;;;;;;;;;13.50;1.00;;;;;;5449792;26;19924;-77
2024/04/17 14:29:06;;;;;;;;;;;13.40;1.00;;;;;;5435122;26;19924;-77
2024/04/17 14:31:32;;;;;;;;;;;13.40;1.00;;;;;;5454217;26;19935;-77
2024/04/17 14:33:57;;;;;;;;;;;13.40;1.00;;;;;;5454017;26;19924;-77
2024/04/17 14:36:26;;;;;;;;;;;13.40;1.00;;;;;;5453749;26;19931;-77
2024/04/17 14:39:05;;;;;;;;;;;12.90;1.00;;;;;;5454050;26;19931;-77
2024/04/17 14:41:30;;;;;;;;;;;12.90;1.00;;;;;;5426917;26;20001;-75